createdAt,value
2018-08-19T00:02:26.491Z,50.72
2018-08-19T00:05:12.508Z,50.01
2018-08-19T00:07:47.461Z,50.88
2018-08-19T00:10:19.373Z,50.56
2018-08-19T00:12:48.427Z,49.81
2018-08-19T00:15:19.614Z,49.44
2018-08-19T00:17:51.998Z,50.26
2018-08-19T00:20:28.260Z,50.00
2018-08-19T00:23:04.075Z,50.78
2018-08-19T00:25:44.681Z,51.86
2018-08-19T00:28:20.870Z,52.09
2018-08-19T00:30:59.747Z,53.10
2018-08-19T00:33:33.787Z,53.33
2018-08-19T00:36:20.142Z,52.95
2018-08-19T00:38:55.565Z,53.03
2018-08-19T00:41:33.115Z,52.51
2018-08-19T00:44:06.616Z,53.09
2018-08-19T00:46:41.138Z,53.45
2018-08-19T00:49:18.437Z,53.11
2018-08-19T00:52:00.604Z,52.73
2018-08-19T00:54:39.057Z,52.30
2018-08-19T00:57:11.705Z,52.38
2018-08-19T00:59:43.033Z,51.98
2018-08-19T01:02:16.342Z,53.17
2018-08-19T01:04:44.980Z,54.11
2018-08-19T01:07:18.295Z,54.13
2018-08-19T01:09:47.097Z,55.17
2018-08-19T01:12:15.913Z,54.75
2018-08-19T01:14:45.155Z,54.90
2018-08-19T01:17:13.760Z,55.51
2018-08-19T01:19:45.084Z,56.21
2018-08-19T01:22:18.212Z,56.15
2018-08-19T01:24:51.817Z,56.03
2018-08-19T01:27:26.035Z,56.43
2018-08-19T01:30:01.112Z,58.18
2018-08-19T01:32:38.200Z,58.54
2018-08-19T01:35:11.250Z,58.83
2018-08-19T01:37:40.675Z,58.33
2018-08-19T01:40:16.624Z,58.12
2018-08-19T01:42:49.477Z,57.85
2018-08-19T01:45:19.197Z,57.70
2018-08-19T01:47:48.059Z,57.39
2018-08-19T01:50:18.036Z,57.43
2018-08-19T01:52:49.975Z,57.03
2018-08-19T01:55:19.488Z,57.22
2018-08-19T01:57:49.549Z,56.75
2018-08-19T02:00:18.680Z,56.16
2018-08-19T02:03:01.268Z,56.28
2018-08-19T02:05:30.074Z,56.39
2018-08-19T02:08:00.343Z,57.27
2018-08-19T02:10:31.514Z,57.12
2018-08-19T02:13:01.840Z,57.70
2018-08-19T02:15:32.441Z,58.43
2018-08-19T02:18:02.716Z,58.85
2018-08-19T02:20:38.099Z,59.08
2018-08-19T02:23:09.556Z,58.74
2018-08-19T02:25:42.166Z,59.03
2018-08-19T02:28:11.246Z,58.91
2018-08-19T02:30:52.035Z,59.02
2018-08-19T02:33:21.523Z,59.83
2018-08-19T02:36:05.847Z,59.44
2018-08-19T02:38:34.774Z,59.81
2018-08-19T02:41:03.720Z,59.17
2018-08-19T02:43:32.686Z,58.42
2018-08-19T02:46:01.306Z,58.74
2018-08-19T02:48:42.965Z,59.18
2018-08-19T02:51:14.009Z,59.39
2018-08-19T02:53:45.223Z,58.97
2018-08-19T02:56:14.277Z,58.85
2018-08-19T02:58:43.623Z,59.17
2018-08-19T03:01:13.110Z,58.58
2018-08-19T03:03:41.665Z,58.88
2018-08-19T03:06:10.497Z,59.34
2018-08-19T03:08:46.889Z,59.95
2018-08-19T03:11:18.304Z,61.42
2018-08-19T03:13:46.868Z,61.05
2018-08-19T03:16:15.418Z,61.67
2018-08-19T03:18:43.942Z,62.60
2018-08-19T03:21:12.513Z,63.13
2018-08-19T03:23:41.038Z,62.88
2018-08-19T03:26:09.584Z,62.71
2018-08-19T03:28:38.126Z,62.64
2018-08-19T03:31:07.023Z,62.42
2018-08-19T03:33:35.840Z,62.67
2018-08-19T03:36:05.336Z,61.89
2018-08-19T03:38:34.253Z,61.56
2018-08-19T03:41:02.766Z,61.86
2018-08-19T03:43:31.330Z,61.87
2018-08-19T03:46:05.923Z,62.03
2018-08-19T03:48:34.672Z,61.86
2018-08-19T03:51:03.568Z,62.22
2018-08-19T03:53:32.347Z,62.46
2018-08-19T03:56:01.120Z,63.35
2018-08-19T03:58:29.664Z,63.85
2018-08-19T04:00:58.192Z,64.07
2018-08-19T04:03:27.437Z,64.82
2018-08-19T04:06:00.262Z,65.18
2018-08-19T04:08:59.678Z,65.22
2018-08-19T04:11:28.196Z,65.43
2018-08-19T04:13:56.735Z,65.49
2018-08-19T04:16:26.109Z,64.61
2018-08-19T04:19:08.135Z,65.00
2018-08-19T04:21:36.673Z,64.50
2018-08-19T04:24:05.251Z,64.51
2018-08-19T04:26:33.992Z,64.29
2018-08-19T04:29:05.377Z,63.87
2018-08-19T04:31:34.603Z,63.40
2018-08-19T04:34:03.498Z,63.52
2018-08-19T04:36:32.347Z,64.25
2018-08-19T04:39:01.251Z,63.37
2018-08-19T04:41:29.795Z,63.65
2018-08-19T04:43:58.380Z,63.19
2018-08-19T04:46:26.926Z,63.08
2018-08-19T04:48:55.488Z,63.26
2018-08-19T04:51:24.309Z,64.31
2018-08-19T04:53:53.594Z,64.51
2018-08-19T04:56:22.622Z,64.93
2018-08-19T04:58:51.202Z,64.86
2018-08-19T05:01:20.118Z,64.90
2018-08-19T05:03:48.930Z,65.36
2018-08-19T05:06:17.454Z,64.84
2018-08-19T05:08:46.288Z,63.95
2018-08-19T05:11:15.244Z,63.92
2018-08-19T05:13:43.817Z,63.31
2018-08-19T05:16:12.347Z,64.09
2018-08-19T05:18:44.571Z,63.12
2018-08-19T05:21:15.322Z,63.08
2018-08-19T05:23:44.616Z,62.67
2018-08-19T05:26:13.528Z,62.62
2018-08-19T05:28:45.327Z,62.57
2018-08-19T05:31:14.090Z,62.45
2018-08-19T05:33:43.116Z,62.60
2018-08-19T05:36:11.645Z,62.78
2018-08-19T05:38:40.168Z,63.21
2018-08-19T05:41:11.763Z,63.18
2018-08-19T05:43:40.672Z,63.10
2018-08-19T05:46:09.329Z,62.91
2018-08-19T05:48:37.991Z,62.67
2018-08-19T05:51:06.554Z,63.32
2018-08-19T05:53:35.839Z,62.28
2018-08-19T05:56:04.730Z,62.25
2018-08-19T05:58:33.266Z,61.74
2018-08-19T06:01:01.879Z,61.71
2018-08-19T06:03:30.830Z,61.47
2018-08-19T06:05:59.664Z,62.28
2018-08-19T06:08:28.204Z,62.19
2018-08-19T06:10:56.808Z,61.41
2018-08-19T06:13:28.673Z,61.41
2018-08-19T06:15:58.304Z,61.73
2018-08-19T06:18:26.864Z,62.04
2018-08-19T06:20:55.682Z,61.25
2018-08-19T06:23:24.199Z,60.88
2018-08-19T06:25:53.598Z,61.23
2018-08-19T06:28:22.135Z,60.95
2018-08-19T06:30:50.934Z,61.30
2018-08-19T06:33:19.498Z,62.16
2018-08-19T06:35:48.046Z,60.94
2018-08-19T06:38:16.564Z,61.90
2018-08-19T06:40:45.405Z,60.63
2018-08-19T06:43:14.218Z,60.96
2018-08-19T06:45:42.737Z,59.77
2018-08-19T06:48:11.769Z,58.96
2018-08-19T06:50:40.428Z,58.88
2018-08-19T06:53:14.416Z,58.19
2018-08-19T06:55:43.931Z,57.43
2018-08-19T06:58:13.068Z,57.48
2018-08-19T07:00:41.921Z,56.74
2018-08-19T07:03:10.783Z,57.13
2018-08-19T07:05:43.812Z,56.30
2018-08-19T07:08:12.973Z,56.84
2018-08-19T07:10:43.777Z,55.65
2018-08-19T07:13:22.208Z,55.89
2018-08-19T07:16:01.176Z,55.69
2018-08-19T07:18:29.930Z,55.75
2018-08-19T07:20:58.445Z,56.04
2018-08-19T07:23:28.207Z,55.87
2018-08-19T07:25:58.592Z,55.33
2018-08-19T07:28:31.096Z,55.06
2018-08-19T07:31:05.157Z,55.10
2018-08-19T07:33:35.520Z,55.18
2018-08-19T07:36:15.005Z,54.23
2018-08-19T07:38:45.966Z,53.94
2018-08-19T07:41:24.583Z,54.13
2018-08-19T07:44:02.045Z,53.83
2018-08-19T07:49:46.696Z,53.16
2018-08-19T07:52:20.189Z,52.87
2018-08-19T07:57:34.863Z,53.22
2018-08-19T08:00:16.118Z,53.39
2018-08-19T08:02:46.163Z,52.73
2018-08-19T08:05:14.772Z,51.85
2018-08-19T08:07:47.949Z,51.74
2018-08-19T08:10:18.122Z,52.67
2018-08-19T08:13:17.478Z,52.63
2018-08-19T08:15:55.998Z,52.74
2018-08-19T08:18:31.867Z,51.92
2018-08-19T08:21:09.097Z,51.13
2018-08-19T08:23:42.348Z,51.17
2018-08-19T08:26:16.335Z,50.51
2018-08-19T08:28:58.819Z,50.84
2018-08-19T08:31:28.261Z,49.88
2018-08-19T08:34:00.636Z,48.75
2018-08-19T08:36:30.618Z,48.77
2018-08-19T08:39:03.914Z,46.80
2018-08-19T08:41:42.672Z,46.88
2018-08-19T08:44:12.262Z,46.31
2018-08-19T08:46:40.857Z,45.67
2018-08-19T08:49:09.895Z,44.86
2018-08-19T08:51:38.757Z,44.07
2018-08-19T08:54:07.408Z,44.69
2018-08-19T08:56:35.968Z,42.04
2018-08-19T08:59:04.859Z,41.46
2018-08-19T09:01:33.998Z,40.73
2018-08-19T09:04:02.604Z,40.91
2018-08-19T09:06:31.195Z,41.52
2018-08-19T09:08:59.760Z,39.91
2018-08-19T09:11:28.354Z,39.68
2018-08-19T09:13:57.379Z,39.51
2018-08-19T09:16:26.389Z,39.98
2018-08-19T09:18:55.521Z,38.67
2018-08-19T09:21:24.142Z,38.48
2018-08-19T09:23:52.703Z,38.75
2018-08-19T09:26:21.969Z,39.19
2018-08-19T09:28:50.530Z,37.19
2018-08-19T09:31:19.091Z,37.69
2018-08-19T09:33:47.624Z,36.53
2018-08-19T09:36:16.187Z,35.72
2018-08-19T09:38:44.759Z,36.47
2018-08-19T09:41:13.636Z,35.98
2018-08-19T09:43:42.172Z,35.87
2018-08-19T09:46:10.743Z,35.33
2018-08-19T09:48:39.465Z,35.74
2018-08-19T09:51:13.003Z,35.93
2018-08-19T09:53:42.286Z,36.60
2018-08-19T09:56:11.799Z,35.95
2018-08-19T09:58:41.885Z,35.06
2018-08-19T10:01:19.431Z,35.49
2018-08-19T10:03:48.000Z,34.86
2018-08-19T10:06:16.531Z,34.39
2018-08-19T10:08:45.495Z,34.56
2018-08-19T10:11:14.074Z,35.04
2018-08-19T10:13:46.112Z,33.91
2018-08-19T10:16:14.597Z,33.02
2018-08-19T10:18:43.176Z,32.15
2018-08-19T10:21:18.488Z,32.57
2018-08-19T10:23:47.350Z,31.85
2018-08-19T10:26:15.872Z,33.52
2018-08-19T10:28:44.428Z,33.39
2018-08-19T10:31:18.401Z,32.80
2018-08-19T10:33:47.645Z,33.08
2018-08-19T10:36:16.192Z,32.80
2018-08-19T10:38:45.719Z,31.59
2018-08-19T10:41:14.314Z,33.20
2018-08-19T10:43:42.928Z,32.24
2018-08-19T10:46:11.503Z,31.67
2018-08-19T10:48:41.364Z,32.96
2018-08-19T10:51:11.821Z,31.52
2018-08-19T10:53:40.757Z,30.92
2018-08-19T10:56:09.321Z,31.21
2018-08-19T10:58:40.412Z,30.17
2018-08-19T11:01:09.129Z,30.73
2018-08-19T11:03:38.089Z,29.92
2018-08-19T11:06:07.186Z,29.67
2018-08-19T11:08:36.260Z,31.82
2018-08-19T11:11:05.036Z,30.18
2018-08-19T11:13:34.783Z,31.32
2018-08-19T11:16:03.400Z,29.48
2018-08-19T11:18:39.530Z,30.23
2018-08-19T11:21:11.132Z,29.76
2018-08-19T11:23:42.987Z,28.65
2018-08-19T11:26:12.490Z,29.84
2018-08-19T11:28:50.710Z,30.33
2018-08-19T11:31:26.421Z,29.60
2018-08-19T11:34:02.065Z,28.23
2018-08-19T11:36:36.755Z,28.81
2018-08-19T11:39:11.733Z,28.90
2018-08-19T11:41:40.340Z,28.96
2018-08-19T11:44:13.964Z,28.74
2018-08-19T11:46:42.503Z,30.45
2018-08-19T11:49:12.334Z,31.01
2018-08-19T11:51:53.764Z,29.25
2018-08-19T11:54:23.189Z,29.12
2018-08-19T11:56:58.082Z,28.83
2018-08-19T11:59:31.996Z,28.22
2018-08-19T12:02:00.590Z,27.64
2018-08-19T12:04:29.381Z,26.79
2018-08-19T12:06:58.036Z,26.76
2018-08-19T12:09:26.626Z,26.72
2018-08-19T12:11:55.222Z,27.97
2018-08-19T12:14:24.208Z,29.03
2018-08-19T12:16:54.791Z,28.97
2018-08-19T12:19:25.746Z,28.74
2018-08-19T12:21:56.552Z,27.65
2018-08-19T12:24:38.317Z,26.24
2018-08-19T12:27:08.347Z,28.62
2018-08-19T12:29:37.973Z,27.66
2018-08-19T12:32:16.995Z,26.10
2018-08-19T12:34:48.156Z,27.04
2018-08-19T12:37:17.868Z,27.54
2018-08-19T12:39:46.466Z,26.43
2018-08-19T12:42:15.105Z,27.49
2018-08-19T12:44:44.569Z,26.91
2018-08-19T12:47:17.592Z,27.29
2018-08-19T12:49:49.136Z,26.08
2018-08-19T12:52:20.572Z,26.04
2018-08-19T12:54:58.921Z,26.93
2018-08-19T12:57:28.181Z,25.65
2018-08-19T13:00:07.575Z,24.28
2018-08-19T13:02:43.112Z,25.34
2018-08-19T13:05:12.575Z,23.38
2018-08-19T13:07:41.118Z,23.86
2018-08-19T13:10:09.804Z,22.36
2018-08-19T13:12:54.116Z,21.51
2018-08-19T13:15:24.325Z,20.66
2018-08-19T13:17:53.127Z,20.64
2018-08-19T13:20:21.723Z,20.14
2018-08-19T13:22:56.046Z,23.08
2018-08-19T13:25:25.626Z,21.98
2018-08-19T13:27:54.178Z,23.27
2018-08-19T13:30:23.081Z,23.09
2018-08-19T13:32:52.351Z,21.76
2018-08-19T13:35:34.387Z,22.31
2018-08-19T13:38:03.541Z,23.07
2018-08-19T13:40:32.098Z,22.25
2018-08-19T13:43:01.202Z,21.13
2018-08-19T13:45:30.604Z,21.18
2018-08-19T13:47:59.526Z,20.82
2018-08-19T13:50:28.156Z,22.32
2018-08-19T13:52:57.060Z,21.95
2018-08-19T13:55:25.682Z,22.35
2018-08-19T13:57:55.858Z,20.73
2018-08-19T14:00:28.550Z,20.60
2018-08-19T14:02:57.066Z,20.37
2018-08-19T14:05:25.894Z,21.61
2018-08-19T14:07:54.412Z,22.10
2018-08-19T14:10:23.338Z,21.90
2018-08-19T14:12:51.872Z,21.58
2018-08-19T14:15:20.471Z,21.29
2018-08-19T14:17:49.292Z,20.92
2018-08-19T14:20:18.371Z,19.47
2018-08-19T14:22:46.903Z,20.34
2018-08-19T14:25:16.772Z,22.46
2018-08-19T14:28:06.120Z,21.06
2018-08-19T14:39:49.035Z,21.18
2018-08-19T14:42:40.857Z,21.72
2018-08-19T14:45:22.288Z,22.97
2018-08-19T14:47:59.247Z,22.33
2018-08-19T14:50:35.427Z,20.79
2018-08-19T14:53:20.403Z,21.97
2018-08-19T14:56:10.795Z,22.00
2018-08-19T14:58:59.535Z,21.83
2018-08-19T15:01:37.244Z,20.78
2018-08-19T15:04:23.183Z,21.82
2018-08-19T15:09:49.452Z,22.49
2018-08-19T15:12:29.851Z,22.87
2018-08-19T15:15:15.083Z,23.23
2018-08-19T15:20:47.243Z,21.54
2018-08-19T15:23:35.803Z,21.54
2018-08-19T15:26:09.985Z,22.09
2018-08-19T15:28:52.008Z,22.88
2018-08-19T15:31:34.122Z,23.97
2018-08-19T15:34:09.485Z,23.61
2018-08-19T15:36:39.767Z,22.96
2018-08-19T15:39:09.260Z,23.11
2018-08-19T15:41:41.930Z,23.73
2018-08-19T15:44:14.173Z,22.99
2018-08-19T15:46:43.035Z,23.05
2018-08-19T15:49:11.624Z,23.03
2018-08-19T15:51:40.796Z,23.01
2018-08-19T15:54:10.377Z,22.87
2018-08-19T15:56:38.963Z,22.83
2018-08-19T15:59:09.939Z,22.70
2018-08-19T16:01:38.937Z,24.51
2018-08-19T16:04:15.937Z,24.41
2018-08-19T16:06:46.042Z,24.14
2018-08-19T16:09:15.890Z,24.27
2018-08-19T16:11:45.681Z,23.47
2018-08-19T16:14:33.153Z,22.92
2018-08-19T16:17:03.097Z,24.14
2018-08-19T16:19:31.659Z,23.83
2018-08-19T16:22:01.740Z,25.69
2018-08-19T16:24:34.292Z,26.65
2018-08-19T16:27:07.776Z,26.23
2018-08-19T16:29:40.370Z,25.23
2018-08-19T16:32:14.595Z,24.95
2018-08-19T16:34:47.598Z,24.72
2018-08-19T16:37:19.034Z,25.78
2018-08-19T16:39:57.071Z,24.87
2018-08-19T16:42:26.660Z,25.11
2018-08-19T16:44:55.636Z,24.58
2018-08-19T16:47:24.415Z,24.84
2018-08-19T16:49:53.210Z,25.12
2018-08-19T16:52:21.838Z,24.36
2018-08-19T16:54:51.371Z,24.69
2018-08-19T16:57:23.375Z,24.51
2018-08-19T16:59:55.412Z,25.00
2018-08-19T17:02:27.397Z,25.67
2018-08-19T17:05:01.862Z,26.64
2018-08-19T17:07:38.649Z,26.28
2018-08-19T17:10:07.217Z,26.67
2018-08-19T17:12:35.761Z,26.92
2018-08-19T17:15:04.331Z,26.82
2018-08-19T17:17:32.869Z,26.66
2018-08-19T17:20:01.393Z,26.36
2018-08-19T17:22:29.959Z,26.55
2018-08-19T17:24:59.364Z,26.31
2018-08-19T17:27:27.927Z,26.79
2018-08-19T17:29:56.525Z,26.68
2018-08-19T17:32:25.094Z,26.59
2018-08-19T17:34:54.030Z,27.54
2018-08-19T17:37:24.512Z,28.04
2018-08-19T17:39:53.162Z,27.42
2018-08-19T17:42:21.706Z,27.66
2018-08-19T17:44:50.995Z,27.84
2018-08-19T17:47:19.791Z,27.79
2018-08-19T17:49:48.690Z,27.54
2018-08-19T17:52:17.607Z,28.42
2018-08-19T17:54:46.408Z,28.92
2018-08-19T17:57:15.833Z,29.78
2018-08-19T17:59:44.409Z,29.04
2018-08-19T18:02:12.908Z,29.31
2018-08-19T18:04:47.115Z,29.46
2018-08-19T18:07:27.886Z,29.03
2018-08-19T18:09:57.866Z,29.07
2018-08-19T18:12:26.480Z,28.66
2018-08-19T18:14:55.330Z,28.94
2018-08-19T18:17:23.883Z,29.12
2018-08-19T18:19:53.242Z,29.43
2018-08-19T18:22:22.291Z,30.05
2018-08-19T18:25:06.455Z,29.79
2018-08-19T18:27:35.161Z,30.49
2018-08-19T18:30:03.942Z,30.91
2018-08-19T18:32:32.551Z,30.43
2018-08-19T18:35:01.265Z,30.95
2018-08-19T18:37:29.830Z,31.59
2018-08-19T18:39:59.577Z,31.76
2018-08-19T18:42:37.929Z,31.68
2018-08-19T18:45:11.761Z,32.17
2018-08-19T18:47:47.411Z,32.08
2018-08-19T18:50:16.424Z,32.34
2018-08-19T18:52:44.982Z,32.99
2018-08-19T18:55:13.494Z,32.96
2018-08-19T18:57:47.251Z,33.15
2018-08-19T19:00:15.797Z,33.41
2018-08-19T19:02:48.906Z,33.72
2018-08-19T19:05:29.190Z,34.13
2018-08-19T19:08:00.715Z,34.15
2018-08-19T19:10:32.317Z,34.41
2018-08-19T19:13:00.956Z,34.49
2018-08-19T19:15:30.032Z,34.98
2018-08-19T19:17:58.636Z,34.88
2018-08-19T19:20:27.369Z,35.00
2018-08-19T19:23:01.890Z,34.84
2018-08-19T19:25:36.065Z,35.60
2018-08-19T19:28:04.708Z,35.83
2018-08-19T19:30:34.170Z,36.79
2018-08-19T19:33:10.703Z,37.83
2018-08-19T19:35:39.217Z,38.16
2018-08-19T19:38:08.420Z,38.90
2018-08-19T19:40:39.000Z,38.15
2018-08-19T19:43:07.857Z,37.67
2018-08-19T19:45:42.700Z,37.74
2018-08-19T19:48:11.823Z,37.58
2018-08-19T19:50:41.272Z,37.29
2018-08-19T19:53:10.381Z,37.14
2018-08-19T19:55:38.896Z,37.38
2018-08-19T19:58:07.562Z,37.00
2018-08-19T20:00:50.994Z,36.86
2018-08-19T20:03:19.908Z,37.24
2018-08-19T20:05:48.455Z,37.31
2018-08-19T20:08:17.397Z,37.46
2018-08-19T20:10:46.637Z,39.28
2018-08-19T20:13:15.317Z,40.37
2018-08-19T20:15:43.868Z,40.25
2018-08-19T20:18:12.418Z,40.52
2018-08-19T20:20:40.944Z,40.85
2018-08-19T20:23:13.888Z,42.04
2018-08-19T20:25:42.413Z,41.45
2018-08-19T20:28:11.052Z,41.71
2018-08-19T20:30:40.255Z,41.32
2018-08-19T20:33:16.945Z,40.89
2018-08-19T20:35:45.601Z,40.87
2018-08-19T20:38:14.197Z,40.77
2018-08-19T20:40:42.774Z,41.41
2018-08-19T20:43:17.926Z,41.43
2018-08-19T20:45:46.867Z,41.67
2018-08-19T20:48:17.960Z,41.35
2018-08-19T20:50:47.144Z,41.77
2018-08-19T20:53:17.193Z,41.70
2018-08-19T20:55:45.844Z,41.70
2018-08-19T20:58:14.415Z,41.95
2018-08-19T21:00:43.008Z,42.10
2018-08-19T21:03:11.772Z,41.82
2018-08-19T21:05:40.701Z,41.93
2018-08-19T21:08:13.391Z,42.40
2018-08-19T21:10:43.806Z,42.26
2018-08-19T21:13:13.536Z,42.37
2018-08-19T21:15:45.241Z,42.91
2018-08-19T21:18:14.081Z,42.64
2018-08-19T21:20:43.174Z,42.95
2018-08-19T21:23:12.041Z,42.56
2018-08-19T21:25:47.846Z,42.86
2018-08-19T21:28:16.905Z,42.73
2018-08-19T21:30:45.474Z,43.57
2018-08-19T21:33:14.071Z,43.47
2018-08-19T21:35:48.001Z,44.63
2018-08-19T21:38:16.804Z,44.91
2018-08-19T21:40:45.354Z,44.75
2018-08-19T21:43:14.155Z,45.45
2018-08-19T21:45:42.754Z,45.62
2018-08-19T21:48:14.460Z,45.59
2018-08-19T21:50:43.145Z,46.04
2018-08-19T21:53:16.025Z,46.41
2018-08-19T21:55:45.893Z,45.96
2018-08-19T21:58:14.474Z,46.05
2018-08-19T22:00:53.069Z,46.44
2018-08-19T22:03:26.920Z,46.97
2018-08-19T22:05:56.457Z,46.50
2018-08-19T22:08:25.245Z,46.79
2018-08-19T22:10:53.820Z,46.62
2018-08-19T22:13:22.410Z,46.07
2018-08-19T22:15:51.024Z,46.43
2018-08-19T22:18:22.080Z,46.51
2018-08-19T22:21:03.381Z,46.86
2018-08-19T22:23:37.267Z,47.64
2018-08-19T22:26:06.329Z,47.72
2018-08-19T22:28:34.928Z,47.72
2018-08-19T22:31:15.110Z,48.20
2018-08-19T22:33:45.912Z,48.76
2018-08-19T22:36:14.455Z,48.99
2018-08-19T22:38:44.022Z,49.44
2018-08-19T22:41:12.617Z,49.45
2018-08-19T22:43:41.135Z,49.25
2018-08-19T22:46:09.743Z,49.73
2018-08-19T22:48:40.562Z,49.54
2018-08-19T22:51:10.710Z,49.29
2018-08-19T22:53:39.278Z,49.32
2018-08-19T22:56:07.908Z,49.19
2018-08-19T22:58:36.881Z,50.07
2018-08-19T23:01:06.586Z,49.58
2018-08-19T23:03:35.193Z,51.35
2018-08-19T23:06:03.816Z,49.71
2018-08-19T23:08:33.762Z,49.61
2018-08-19T23:11:03.499Z,49.55
2018-08-19T23:13:43.214Z,49.74
2018-08-19T23:16:12.641Z,49.92
2018-08-19T23:18:41.916Z,49.51
2018-08-19T23:21:11.259Z,49.33
2018-08-19T23:23:40.848Z,49.39
2018-08-19T23:26:09.433Z,49.61
2018-08-19T23:28:37.973Z,49.73
2018-08-19T23:31:06.565Z,49.77
2018-08-19T23:33:35.904Z,49.11
2018-08-19T23:36:04.503Z,48.96
2018-08-19T23:38:33.048Z,49.98
2018-08-19T23:41:01.616Z,49.10
2018-08-19T23:43:30.152Z,49.55
2018-08-19T23:45:59.070Z,49.85
2018-08-19T23:48:27.601Z,50.54
2018-08-19T23:50:56.184Z,50.99
2018-08-19T23:53:25.333Z,50.96
2018-08-19T23:55:54.324Z,51.01
2018-08-19T23:58:22.858Z,51.03
